createdAt,value
2019-03-30T00:01:02.725Z,14.37
2019-03-30T00:03:33.363Z,14.10
2019-03-30T00:06:03.883Z,13.07
2019-03-30T00:08:34.367Z,12.47
2019-03-30T00:11:04.871Z,13.33
2019-03-30T00:13:35.421Z,12.67
2019-03-30T00:16:05.896Z,12.87
2019-03-30T00:18:36.319Z,13.03
2019-03-30T00:21:06.834Z,13.10
2019-03-30T00:23:37.287Z,12.03
2019-03-30T00:26:07.777Z,12.23
2019-03-30T00:28:38.275Z,12.87
2019-03-30T00:31:16.147Z,13.23
2019-03-30T00:33:46.636Z,13.90
2019-03-30T00:36:17.139Z,13.17
2019-03-30T00:38:47.669Z,13.57
2019-03-30T00:41:18.142Z,12.83
2019-03-30T00:43:48.616Z,13.67
2019-03-30T00:46:19.071Z,13.80
2019-03-30T00:48:49.781Z,12.97
2019-03-30T00:51:20.512Z,12.40
2019-03-30T00:53:51.066Z,13.27
2019-03-30T00:56:22.604Z,13.00
2019-03-30T00:58:53.248Z,12.10
2019-03-30T01:01:23.802Z,12.33
2019-03-30T01:03:54.339Z,13.07
2019-03-30T01:06:24.884Z,12.73
2019-03-30T01:08:55.359Z,14.37
2019-03-30T01:11:25.827Z,13.93
2019-03-30T01:13:56.396Z,13.93
2019-03-30T01:16:26.968Z,14.00
2019-03-30T01:18:57.430Z,13.03
2019-03-30T01:21:27.982Z,14.27
2019-03-30T01:23:58.431Z,13.23
2019-03-30T01:26:29.058Z,14.63
2019-03-30T01:28:59.556Z,13.67
2019-03-30T01:31:30.112Z,14.23
2019-03-30T01:34:02.119Z,13.43
2019-03-30T01:36:32.691Z,13.70
2019-03-30T01:39:04.448Z,14.33
2019-03-30T01:41:34.929Z,14.40
2019-03-30T01:44:05.551Z,13.57
2019-03-30T01:46:35.975Z,13.50
2019-03-30T01:49:06.638Z,13.70
2019-03-30T01:51:39.604Z,13.30
2019-03-30T01:54:10.198Z,13.77
2019-03-30T01:56:40.675Z,13.80
2019-03-30T01:59:11.231Z,13.87
2019-03-30T02:01:41.752Z,14.10
2019-03-30T02:04:12.259Z,13.80
2019-03-30T02:06:42.800Z,13.07
2019-03-30T02:09:15.579Z,12.23
2019-03-30T02:11:46.119Z,13.47
2019-03-30T02:14:16.716Z,13.03
2019-03-30T02:16:47.279Z,12.77
2019-03-30T02:19:17.788Z,13.80
2019-03-30T02:21:48.291Z,13.07
2019-03-30T02:24:19.286Z,13.10
2019-03-30T02:26:50.314Z,13.20
2019-03-30T02:29:20.863Z,13.53
2019-03-30T02:31:51.420Z,12.77
2019-03-30T02:34:21.988Z,13.63
2019-03-30T02:36:52.557Z,13.23
2019-03-30T02:39:22.982Z,12.53
2019-03-30T02:41:53.537Z,13.83
2019-03-30T02:44:24.109Z,13.33
2019-03-30T02:46:55.106Z,14.17
2019-03-30T02:49:25.685Z,12.90
2019-03-30T02:51:56.174Z,13.23
2019-03-30T02:54:26.659Z,12.97
2019-03-30T02:56:57.172Z,11.83
2019-03-30T02:59:27.709Z,12.77
2019-03-30T03:01:58.272Z,12.50
2019-03-30T03:04:28.850Z,13.17
2019-03-30T03:06:59.302Z,13.30
2019-03-30T03:09:29.898Z,13.43
2019-03-30T03:12:00.455Z,13.53
2019-03-30T03:14:31.019Z,13.83
2019-03-30T03:17:01.627Z,13.70
2019-03-30T03:19:32.087Z,13.57
2019-03-30T03:22:02.559Z,12.93
2019-03-30T03:24:33.098Z,13.33
2019-03-30T03:27:03.640Z,12.70
2019-03-30T03:29:34.170Z,13.57
2019-03-30T03:32:04.727Z,13.23
2019-03-30T03:34:35.351Z,12.87
2019-03-30T03:37:06.036Z,12.13
2019-03-30T03:39:36.592Z,12.97
2019-03-30T03:42:07.125Z,14.07
2019-03-30T03:44:37.628Z,12.70
2019-03-30T03:47:08.234Z,13.83
2019-03-30T03:49:38.823Z,14.50
2019-03-30T03:52:10.113Z,13.93
2019-03-30T03:54:41.139Z,13.60
2019-03-30T03:57:13.619Z,12.97
2019-03-30T03:59:45.628Z,13.43
2019-03-30T04:02:17.520Z,13.07
2019-03-30T04:04:49.060Z,13.00
2019-03-30T04:07:22.230Z,13.33
2019-03-30T04:09:55.695Z,12.83
2019-03-30T04:12:26.436Z,12.83
2019-03-30T04:14:58.508Z,13.40
2019-03-30T04:17:30.081Z,13.13
2019-03-30T04:20:00.745Z,13.53
2019-03-30T04:22:31.357Z,12.00
2019-03-30T04:25:01.879Z,12.87
2019-03-30T04:27:32.510Z,12.70
2019-03-30T04:30:02.955Z,13.50
2019-03-30T04:32:33.522Z,13.87
2019-03-30T04:35:04.084Z,13.53
2019-03-30T04:37:34.583Z,13.57
2019-03-30T04:40:05.351Z,13.70
2019-03-30T04:42:35.986Z,13.67
2019-03-30T04:45:06.845Z,12.87
2019-03-30T04:47:37.399Z,13.50
2019-03-30T04:50:08.511Z,13.70
2019-03-30T04:52:39.061Z,13.43
2019-03-30T04:55:09.652Z,13.87
2019-03-30T04:57:40.195Z,13.70
2019-03-30T05:00:10.816Z,12.90
2019-03-30T05:02:41.421Z,12.50
2019-03-30T05:05:12.324Z,13.63
2019-03-30T05:07:42.852Z,13.30
2019-03-30T05:10:14.027Z,14.03
2019-03-30T05:12:44.632Z,14.00
2019-03-30T05:15:15.315Z,13.10
2019-03-30T05:17:47.799Z,12.53
2019-03-30T05:20:18.301Z,13.37
2019-03-30T05:22:51.388Z,13.40
2019-03-30T05:25:22.087Z,13.83
2019-03-30T05:27:52.608Z,13.63
2019-03-30T05:30:24.214Z,13.03
2019-03-30T05:33:05.527Z,13.27
2019-03-30T05:35:26.942Z,14.73
2019-03-30T05:37:57.442Z,13.87
2019-03-30T05:40:27.998Z,13.50
2019-03-30T05:42:59.166Z,13.47
2019-03-30T05:45:29.775Z,13.17
2019-03-30T05:48:00.304Z,14.00
2019-03-30T05:50:30.955Z,14.33
2019-03-30T05:53:01.497Z,13.83
2019-03-30T05:55:32.015Z,14.73
2019-03-30T05:58:02.552Z,14.90
2019-03-30T06:00:33.076Z,14.70
2019-03-30T06:03:03.669Z,14.63
2019-03-30T06:05:34.150Z,15.27
2019-03-30T06:08:04.976Z,14.93
2019-03-30T06:10:38.600Z,14.63
2019-03-30T06:13:07.543Z,14.57
2019-03-30T06:15:37.903Z,15.43
2019-03-30T06:18:11.227Z,15.73
2019-03-30T06:20:40.476Z,15.60
2019-03-30T06:23:10.925Z,15.83
2019-03-30T06:25:41.290Z,15.30
2019-03-30T06:28:11.683Z,16.10
2019-03-30T06:30:42.122Z,16.00
2019-03-30T06:33:12.537Z,15.20
2019-03-30T06:35:42.897Z,16.73
2019-03-30T06:38:13.280Z,15.47
2019-03-30T06:40:43.701Z,16.10
2019-03-30T06:43:14.510Z,15.57
2019-03-30T06:45:44.782Z,15.63
2019-03-30T06:48:15.208Z,16.47
2019-03-30T06:50:45.536Z,16.87
2019-03-30T06:53:15.806Z,16.90
2019-03-30T06:55:46.111Z,18.53
2019-03-30T06:58:16.618Z,17.03
2019-03-30T07:00:48.235Z,17.17
2019-03-30T07:03:18.861Z,18.07
2019-03-30T07:05:49.322Z,18.17
2019-03-30T07:08:19.765Z,17.70
2019-03-30T07:10:50.247Z,19.20
2019-03-30T07:13:20.807Z,17.80
2019-03-30T07:15:51.681Z,17.80
2019-03-30T07:18:22.146Z,16.77
2019-03-30T07:20:52.607Z,16.73
2019-03-30T07:23:22.839Z,18.47
2019-03-30T07:25:53.259Z,19.13
2019-03-30T07:28:23.626Z,18.70
2019-03-30T07:30:54.082Z,21.50
2019-03-30T07:33:24.540Z,19.90
2019-03-30T07:35:54.990Z,20.27
2019-03-30T07:38:25.483Z,21.30
2019-03-30T07:40:55.893Z,21.83
2019-03-30T07:43:26.274Z,20.67
2019-03-30T07:45:56.623Z,21.17
2019-03-30T07:48:26.950Z,19.47
2019-03-30T07:50:57.283Z,21.03
2019-03-30T07:53:27.937Z,20.93
2019-03-30T07:56:08.162Z,20.37
2019-03-30T07:58:30.435Z,19.60
2019-03-30T08:01:00.914Z,21.43
2019-03-30T08:03:31.280Z,22.03
2019-03-30T08:06:01.591Z,20.67
2019-03-30T08:08:31.996Z,21.27
2019-03-30T08:11:02.423Z,22.13
2019-03-30T08:13:32.815Z,21.00
2019-03-30T08:16:03.465Z,21.87
2019-03-30T08:18:33.747Z,24.13
2019-03-30T08:21:04.254Z,23.37
2019-03-30T08:23:40.462Z,23.10
2019-03-30T08:26:06.887Z,22.73
2019-03-30T08:28:37.335Z,22.27
2019-03-30T08:31:08.510Z,22.53
2019-03-30T08:33:38.930Z,20.47
2019-03-30T08:36:09.332Z,20.97
2019-03-30T08:38:39.739Z,21.95
2019-03-30T08:41:10.114Z,20.72
2019-03-30T08:43:42.824Z,22.40
2019-03-30T08:46:13.244Z,22.20
2019-03-30T08:48:43.692Z,22.77
2019-03-30T08:51:14.082Z,21.62
2019-03-30T08:53:54.438Z,23.02
2019-03-30T08:56:16.554Z,22.27
2019-03-30T08:58:46.934Z,21.27
2019-03-30T09:01:17.295Z,21.75
2019-03-30T09:03:47.694Z,21.73
2019-03-30T09:06:18.202Z,21.70
2019-03-30T09:08:48.527Z,22.80
2019-03-30T09:11:18.937Z,21.95
2019-03-30T09:13:49.291Z,22.65
2019-03-30T09:16:19.635Z,22.45
2019-03-30T09:18:50.060Z,21.95
2019-03-30T09:21:20.497Z,21.57
2019-03-30T09:23:50.836Z,20.30
2019-03-30T09:26:21.185Z,21.42
2019-03-30T09:28:52.590Z,21.40
2019-03-30T09:31:22.926Z,21.52
2019-03-30T09:33:53.293Z,22.40
2019-03-30T09:36:23.643Z,23.12
2019-03-30T09:38:54.039Z,23.38
2019-03-30T09:41:24.308Z,21.55
2019-03-30T09:43:54.740Z,20.68
2019-03-30T09:46:25.129Z,24.95
2019-03-30T09:48:55.509Z,22.58
2019-03-30T09:51:25.797Z,22.93
2019-03-30T09:53:56.147Z,21.20
2019-03-30T09:56:26.604Z,23.00
2019-03-30T09:58:56.944Z,23.25
2019-03-30T10:01:27.544Z,21.60
2019-03-30T10:03:57.927Z,20.62
2019-03-30T10:06:34.405Z,20.70
2019-03-30T10:09:00.844Z,22.02
2019-03-30T10:11:31.303Z,20.10
2019-03-30T10:14:01.756Z,19.02
2019-03-30T10:16:32.176Z,19.15
2019-03-30T10:19:02.619Z,21.23
2019-03-30T10:21:33.086Z,22.13
2019-03-30T10:24:03.474Z,20.15
2019-03-30T10:26:33.963Z,19.62
2019-03-30T10:29:04.259Z,19.05
2019-03-30T10:31:34.699Z,18.90
2019-03-30T10:34:05.102Z,19.67
2019-03-30T10:36:35.546Z,19.60
2019-03-30T10:39:08.022Z,18.23
2019-03-30T10:41:38.885Z,19.45
2019-03-30T10:44:09.258Z,18.62
2019-03-30T10:46:39.707Z,17.90
2019-03-30T10:49:10.210Z,18.55
2019-03-30T10:51:40.674Z,17.12
2019-03-30T10:54:11.160Z,18.70
2019-03-30T10:56:41.545Z,18.55
2019-03-30T10:59:11.910Z,18.48
2019-03-30T11:01:42.370Z,17.35
2019-03-30T11:04:12.776Z,17.57
2019-03-30T11:06:43.280Z,17.12
2019-03-30T11:09:13.650Z,17.95
2019-03-30T11:11:44.091Z,18.37
2019-03-30T11:14:15.482Z,18.92
2019-03-30T11:16:45.968Z,18.87
2019-03-30T11:19:16.276Z,18.62
2019-03-30T11:21:46.659Z,19.15
2019-03-30T11:24:16.968Z,17.10
2019-03-30T11:26:47.278Z,18.42
2019-03-30T11:29:18.663Z,17.05
2019-03-30T11:31:49.017Z,18.95
2019-03-30T11:34:19.458Z,17.70
2019-03-30T11:36:49.811Z,19.87
2019-03-30T11:39:20.203Z,18.92
2019-03-30T11:41:50.618Z,19.52
2019-03-30T11:44:21.011Z,25.23
2019-03-30T11:46:51.423Z,19.48
2019-03-30T11:49:21.796Z,17.48
2019-03-30T11:51:52.202Z,17.10
2019-03-30T11:54:25.172Z,17.50
2019-03-30T11:56:55.539Z,17.32
2019-03-30T11:59:25.947Z,16.97
2019-03-30T12:01:56.243Z,18.80
2019-03-30T12:04:26.527Z,18.15
2019-03-30T12:06:56.914Z,15.10
2019-03-30T12:09:27.303Z,15.03
2019-03-30T12:11:57.775Z,15.15
2019-03-30T12:14:28.215Z,14.87
2019-03-30T12:16:58.547Z,15.53
2019-03-30T12:19:28.958Z,14.50
2019-03-30T12:21:59.251Z,15.85
2019-03-30T12:24:29.662Z,15.75
2019-03-30T12:27:00.052Z,14.55
2019-03-30T12:29:31.457Z,15.25
2019-03-30T12:32:01.881Z,15.40
2019-03-30T12:34:32.295Z,15.58
2019-03-30T12:37:02.771Z,15.55
2019-03-30T12:39:33.181Z,15.23
2019-03-30T12:42:03.597Z,15.10
2019-03-30T12:44:33.982Z,17.12
2019-03-30T12:47:04.435Z,15.90
2019-03-30T12:49:34.790Z,14.40
2019-03-30T12:52:08.184Z,15.15
2019-03-30T12:54:38.653Z,14.47
2019-03-30T12:57:08.941Z,15.00
2019-03-30T12:59:39.274Z,16.25
2019-03-30T13:02:09.655Z,16.65
2019-03-30T13:04:40.082Z,14.90
2019-03-30T13:07:11.546Z,16.05
2019-03-30T13:09:41.960Z,15.63
2019-03-30T13:12:12.395Z,15.25
2019-03-30T13:14:42.913Z,15.40
2019-03-30T13:17:13.320Z,17.92
2019-03-30T13:19:43.754Z,15.18
2019-03-30T13:22:14.190Z,15.43
2019-03-30T13:24:44.588Z,14.15
2019-03-30T13:27:14.993Z,14.75
2019-03-30T13:29:45.394Z,13.75
2019-03-30T13:32:15.817Z,13.72
2019-03-30T13:34:46.270Z,13.32
2019-03-30T13:37:18.990Z,13.32
2019-03-30T13:39:49.346Z,15.00
2019-03-30T13:42:19.797Z,12.95
2019-03-30T13:44:50.132Z,12.82
2019-03-30T13:47:20.667Z,13.32
2019-03-30T13:49:51.163Z,14.05
2019-03-30T13:52:21.693Z,15.20
2019-03-30T13:54:52.194Z,14.93
2019-03-30T13:57:22.579Z,14.85
2019-03-30T13:59:52.952Z,14.40
2019-03-30T14:02:23.385Z,16.00
2019-03-30T14:04:53.855Z,14.75
2019-03-30T14:07:24.383Z,14.18
2019-03-30T14:09:54.713Z,15.40
2019-03-30T14:12:25.098Z,15.30
2019-03-30T14:14:55.406Z,16.15
2019-03-30T14:17:25.844Z,15.83
2019-03-30T14:19:56.579Z,15.70
2019-03-30T14:22:26.924Z,16.12
2019-03-30T14:24:57.181Z,15.00
2019-03-30T14:27:27.644Z,16.35
2019-03-30T14:29:58.094Z,15.35
2019-03-30T14:32:28.491Z,13.98
2019-03-30T14:34:58.887Z,14.65
2019-03-30T14:37:29.314Z,15.70
2019-03-30T14:39:59.705Z,14.63
2019-03-30T14:42:30.155Z,15.48
2019-03-30T14:45:00.439Z,14.75
2019-03-30T14:47:30.804Z,13.95
2019-03-30T14:50:01.276Z,14.83
2019-03-30T14:52:31.718Z,13.70
2019-03-30T14:55:02.419Z,13.83
2019-03-30T14:57:32.807Z,14.73
2019-03-30T15:00:03.208Z,14.07
2019-03-30T15:02:33.602Z,13.30
2019-03-30T15:05:03.986Z,15.00
2019-03-30T15:07:35.183Z,13.38
2019-03-30T15:10:06.097Z,13.93
2019-03-30T15:12:36.364Z,13.35
2019-03-30T15:15:07.741Z,14.07
2019-03-30T15:17:40.630Z,13.45
2019-03-30T15:20:11.129Z,13.93
2019-03-30T15:22:41.538Z,13.25
2019-03-30T15:25:13.002Z,14.98
2019-03-30T15:27:43.478Z,13.88
2019-03-30T15:30:14.122Z,13.28
2019-03-30T15:32:44.553Z,13.35
2019-03-30T15:35:15.107Z,13.65
2019-03-30T15:37:45.419Z,13.20
2019-03-30T15:40:16.141Z,12.60
2019-03-30T15:42:46.493Z,13.85
2019-03-30T15:45:17.075Z,12.88
2019-03-30T15:47:47.504Z,13.48
2019-03-30T15:50:18.405Z,13.90
2019-03-30T15:52:48.933Z,13.98
2019-03-30T15:55:19.408Z,11.95
2019-03-30T15:57:50.019Z,12.55
2019-03-30T16:00:20.448Z,13.72
2019-03-30T16:02:50.980Z,11.93
2019-03-30T16:05:21.399Z,11.90
2019-03-30T16:07:52.150Z,12.85
2019-03-30T16:10:22.588Z,12.68
2019-03-30T16:12:53.083Z,13.62
2019-03-30T16:15:23.534Z,12.70
2019-03-30T16:17:54.030Z,11.68
2019-03-30T16:20:24.434Z,12.05
2019-03-30T16:22:54.928Z,12.68
2019-03-30T16:25:25.329Z,12.18
2019-03-30T16:27:55.814Z,10.72
2019-03-30T16:30:26.278Z,11.12
2019-03-30T16:32:56.709Z,11.12
2019-03-30T16:35:27.133Z,11.63
2019-03-30T16:37:57.531Z,11.95
2019-03-30T16:40:27.969Z,12.53
2019-03-30T16:42:58.448Z,11.00
2019-03-30T16:45:30.975Z,9.93
2019-03-30T16:48:01.378Z,10.53
2019-03-30T16:50:31.843Z,10.20
2019-03-30T16:53:02.306Z,10.45
2019-03-30T16:55:32.762Z,10.30
2019-03-30T16:58:03.288Z,9.88
2019-03-30T17:00:35.194Z,9.55
2019-03-30T17:03:05.911Z,9.98
2019-03-30T17:05:36.420Z,9.28
2019-03-30T17:08:06.862Z,10.30
2019-03-30T17:10:40.148Z,9.65
2019-03-30T17:13:09.275Z,9.65
2019-03-30T17:15:39.746Z,9.43
2019-03-30T17:18:10.146Z,9.83
2019-03-30T17:20:40.570Z,10.30
2019-03-30T17:23:10.941Z,9.30
2019-03-30T17:25:41.395Z,10.65
2019-03-30T17:28:11.798Z,10.80
2019-03-30T17:30:42.233Z,10.15
2019-03-30T17:33:12.703Z,10.65
2019-03-30T17:35:43.055Z,9.27
2019-03-30T17:38:13.470Z,9.77
2019-03-30T17:40:44.208Z,10.50
2019-03-30T17:43:15.518Z,11.15
2019-03-30T17:45:45.932Z,9.88
2019-03-30T17:48:16.317Z,9.68
2019-03-30T17:50:46.606Z,10.68
2019-03-30T17:53:16.998Z,9.97
2019-03-30T17:55:47.331Z,10.23
2019-03-30T17:58:19.099Z,11.53
2019-03-30T18:00:49.487Z,11.10
2019-03-30T18:03:19.887Z,10.58
2019-03-30T18:05:50.390Z,11.18
2019-03-30T18:08:20.909Z,9.80
2019-03-30T18:10:51.407Z,10.53
2019-03-30T18:13:21.833Z,10.97
2019-03-30T18:15:53.526Z,9.90
2019-03-30T18:18:23.967Z,11.13
2019-03-30T18:20:55.321Z,10.83
2019-03-30T18:23:25.901Z,9.83
2019-03-30T18:25:56.261Z,11.97
2019-03-30T18:28:27.679Z,11.25
2019-03-30T18:30:58.346Z,11.37
2019-03-30T18:33:28.981Z,11.33
2019-03-30T18:35:59.943Z,11.50
2019-03-30T18:38:31.386Z,10.78
2019-03-30T18:41:01.756Z,11.27
2019-03-30T18:43:32.174Z,10.80
2019-03-30T18:46:02.561Z,10.43
2019-03-30T18:48:32.928Z,10.97
2019-03-30T18:51:03.367Z,11.08
2019-03-30T18:53:33.726Z,12.13
2019-03-30T18:56:04.198Z,11.83
2019-03-30T18:58:41.504Z,10.70
2019-03-30T19:01:06.656Z,10.55
2019-03-30T19:03:37.076Z,11.10
2019-03-30T19:06:07.493Z,11.65
2019-03-30T19:08:37.843Z,11.43
2019-03-30T19:11:08.240Z,10.67
2019-03-30T19:13:38.662Z,11.43
2019-03-30T19:16:09.089Z,10.30
2019-03-30T19:18:39.425Z,10.97
2019-03-30T19:21:09.799Z,11.77
2019-03-30T19:23:40.117Z,11.07
2019-03-30T19:26:10.516Z,11.73
2019-03-30T19:28:55.361Z,11.70
2019-03-30T19:31:12.986Z,11.60
2019-03-30T19:33:43.424Z,12.50
2019-03-30T19:36:13.897Z,12.50
2019-03-30T19:38:44.355Z,12.43
2019-03-30T19:41:14.957Z,12.57
2019-03-30T19:43:45.373Z,12.27
2019-03-30T19:46:16.271Z,23.33
2019-03-30T19:48:46.735Z,28.30
2019-03-30T19:51:17.080Z,27.00
2019-03-30T19:53:47.483Z,26.27
2019-03-30T19:56:17.881Z,21.43
2019-03-30T19:58:48.270Z,23.80
2019-03-30T20:01:18.722Z,26.30
2019-03-30T20:03:49.131Z,23.37
2019-03-30T20:06:19.594Z,25.23
2019-03-30T20:08:50.015Z,25.80
2019-03-30T20:11:20.475Z,24.47
2019-03-30T20:13:50.983Z,26.37
2019-03-30T20:16:21.427Z,24.93
2019-03-30T20:18:51.848Z,22.33
2019-03-30T20:21:22.342Z,22.63
2019-03-30T20:23:52.783Z,23.17
2019-03-30T20:26:23.323Z,22.03
2019-03-30T20:28:53.824Z,20.93
2019-03-30T20:31:24.404Z,22.10
2019-03-30T20:33:54.847Z,19.63
2019-03-30T20:36:25.329Z,26.23
2019-03-30T20:38:55.823Z,26.47
2019-03-30T20:41:26.680Z,25.40
2019-03-30T20:43:57.182Z,24.10
2019-03-30T20:46:27.638Z,21.20
2019-03-30T20:48:58.006Z,21.83
2019-03-30T20:51:28.477Z,22.20
2019-03-30T20:54:01.880Z,21.50
2019-03-30T20:56:32.270Z,22.17
2019-03-30T20:59:02.706Z,22.20
2019-03-30T21:01:33.315Z,23.43
2019-03-30T21:04:06.349Z,24.03
2019-03-30T21:06:39.262Z,22.40
2019-03-30T21:09:09.881Z,21.50
2019-03-30T21:11:40.856Z,23.90
2019-03-30T21:14:11.267Z,22.80
2019-03-30T21:16:41.726Z,21.93
2019-03-30T21:31:49.110Z,18.90
2019-03-30T21:34:18.179Z,20.70
2019-03-30T21:36:48.553Z,19.33
2019-03-30T21:39:18.955Z,20.33
2019-03-30T21:41:49.293Z,19.93
2019-03-30T21:44:22.341Z,19.50
2019-03-30T21:46:51.618Z,19.43
2019-03-30T21:49:22.026Z,19.23
2019-03-30T21:51:52.426Z,20.07
2019-03-30T21:54:22.821Z,21.57
2019-03-30T21:56:53.124Z,20.47
2019-03-30T21:59:23.434Z,22.07
2019-03-30T22:01:53.747Z,22.30
2019-03-30T22:04:24.151Z,21.57
2019-03-30T22:06:54.550Z,21.73
2019-03-30T22:09:24.941Z,21.30
2019-03-30T22:11:55.289Z,20.27
2019-03-30T22:14:25.652Z,20.97
2019-03-30T22:16:56.019Z,21.90
2019-03-30T22:19:26.499Z,21.57
2019-03-30T22:21:56.809Z,19.53
2019-03-30T22:24:27.222Z,21.47
2019-03-30T22:26:57.557Z,19.37
2019-03-30T22:29:27.889Z,19.77
2019-03-30T22:31:58.244Z,20.53
2019-03-30T22:34:28.614Z,19.43
2019-03-30T22:36:58.870Z,17.43
2019-03-30T22:39:29.253Z,17.00
2019-03-30T22:41:59.687Z,18.97
2019-03-30T22:44:30.230Z,18.87
2019-03-30T22:47:00.522Z,19.50
2019-03-30T22:49:30.884Z,18.50
2019-03-30T22:52:01.251Z,19.17
2019-03-30T22:54:31.568Z,19.37
2019-03-30T22:57:01.883Z,19.17
2019-03-30T22:59:32.193Z,19.80
2019-03-30T23:02:02.901Z,19.80
2019-03-30T23:04:33.248Z,19.40
2019-03-30T23:07:03.731Z,19.20
2019-03-30T23:09:34.085Z,19.63
2019-03-30T23:12:04.534Z,18.20
2019-03-30T23:14:34.799Z,19.40
2019-03-30T23:17:05.134Z,18.93
2019-03-30T23:19:36.519Z,18.83
2019-03-30T23:22:06.978Z,19.50
2019-03-30T23:24:37.306Z,19.53
2019-03-30T23:27:07.682Z,18.33
2019-03-30T23:29:37.983Z,19.60
2019-03-30T23:32:08.246Z,18.70
2019-03-30T23:34:38.626Z,19.40
2019-03-30T23:37:09.016Z,19.30
2019-03-30T23:39:39.410Z,17.67
2019-03-30T23:42:09.785Z,18.07
2019-03-30T23:44:40.082Z,18.63
2019-03-30T23:47:10.378Z,16.97
2019-03-30T23:49:40.741Z,16.50
2019-03-30T23:52:11.048Z,17.47
2019-03-30T23:54:41.369Z,18.17
2019-03-30T23:57:11.591Z,17.10
2019-03-30T23:59:42.001Z,17.03
